METAR AND TAF INFORMATION
METAR FOR MTPP
ADDS - METARS form results

(0845 UTC 07 August 2020)
Data provider http://aviationweather.gov/metar/data/
 
METAR text: MTPP 070759Z AUTO 14008KT 7000 ////// 27/23 Q1015 A2999 NOSIG
Conditions at: MTPP (PORT-AU-PRINCE , HT) observed 0759 UTC 07 August 2020
Temperature: 27.0°C (81°F)
Dewpoint: 23.0°C (73°F) [RH = 79%]
Pressure (altimeter): 29.97 inches Hg (1015.0 mb)
Winds: from the SE (140 degrees) at 9 MPH (8 knots; 4.1 m/s)
Visibility: 4 miles ( 7 km)
Ceiling: unknown
Clouds: missing
Weather: no significant weather observed at this time

 AIRPORT MAP

 RUNWAY INFORMATION
Runway 10 Runway length 9974 ft Runway width 141 ft
Runway elevation 79 ft Runway displaced threshold 0 ft Runway heading 87
Runway 28 Runway length 9974 ft Runway width 141 ft
Runway elevation 122 ft Runway displaced threshold 0 ft Runway heading 267

 AIRPORT FREQUENCIES
Type APP Name APP Frequency 119.8 MHZ
Type TWR Name TWR Frequency 118.3 MHZ

 AIRPORT NEAR NAVIGATION AIDS
Type NDB Name Port Au Prince Frequency 270 KHZ
Type VOR-DME Name Port Au Prince Frequency 115300 KHZ